Time;durP1;ratioP1;P1;durP2;ratioP2;P2;SDS_P1;SDS_P2;PMS_P1;PMS_P2;Temp;Humidity;BMP_temperature;BMP_pressure;BME280_temperature;BME280_humidity;BME280_pressure;Samples;Min_cycle;Max_cycle;Signal;HPM_P1;HPM_P2
2022/02/12 00:00:09;;;;;;;13.23;2.80;;;13.80;74.30;;;;;;5037401;28;20633;-79
2022/02/12 00:02:35;;;;;;;13.25;3.22;;;13.90;74.50;;;;;;5037742;28;20426;-80
2022/02/12 00:05:01;;;;;;;13.63;3.00;;;13.90;75.00;;;;;;5037691;28;20025;-79
2022/02/12 00:07:26;;;;;;;13.68;3.45;;;13.80;74.40;;;;;;5037580;28;20410;-79
2022/02/12 00:09:53;;;;;;;13.57;3.50;;;13.80;74.50;;;;;;5055148;28;20075;-79
2022/02/12 00:12:19;;;;;;;11.00;3.10;;;13.80;74.50;;;;;;5045222;28;20020;-79
2022/02/12 00:14:44;;;;;;;14.25;3.58;;;13.80;74.60;;;;;;5057284;28;20016;-79
2022/02/12 00:17:10;;;;;;;14.52;3.20;;;13.80;74.60;;;;;;5075398;28;20024;-81
2022/02/12 00:19:35;;;;;;;13.57;3.08;;;13.80;74.60;;;;;;5064898;28;20059;-79
2022/02/12 00:22:01;;;;;;;12.27;3.13;;;13.80;74.70;;;;;;5037452;28;20060;-79
2022/02/12 00:24:26;;;;;;;15.43;2.95;;;13.90;74.70;;;;;;5052057;28;20115;-79
2022/02/12 00:26:52;;;;;;;10.18;2.60;;;13.80;74.70;;;;;;5057297;28;20074;-78
2022/02/12 00:29:17;;;;;;;12.38;3.20;;;13.80;74.80;;;;;;5093606;22;20545;-77
2022/02/12 00:31:43;;;;;;;11.50;2.92;;;13.80;74.80;;;;;;5034962;28;20044;-77
2022/02/12 00:34:08;;;;;;;12.90;2.95;;;13.80;74.90;;;;;;5036593;28;20037;-77
2022/02/12 00:36:34;;;;;;;12.35;3.28;;;13.80;74.90;;;;;;5036539;28;20029;-77
2022/02/12 00:38:59;;;;;;;13.32;3.42;;;13.80;74.80;;;;;;5047920;28;20142;-77
2022/02/12 00:41:25;;;;;;;10.95;2.95;;;13.80;74.90;;;;;;5074454;28;20103;-76
2022/02/12 00:43:50;;;;;;;9.32;2.58;;;13.80;75.00;;;;;;5055582;28;20032;-77
2022/02/12 00:46:16;;;;;;;11.80;3.13;;;13.80;75.00;;;;;;5056307;28;20021;-77
2022/02/12 00:48:42;;;;;;;10.15;2.88;;;13.80;75.00;;;;;;5056143;28;20024;-76
2022/02/12 00:51:07;;;;;;;13.18;3.47;;;13.80;75.00;;;;;;5056241;28;20085;-76
2022/02/12 00:53:33;;;;;;;8.18;2.80;;;13.80;75.00;;;;;;5034215;28;20473;-76
2022/02/12 00:55:58;;;;;;;13.20;3.05;;;13.80;75.10;;;;;;5039923;28;20104;-77
2022/02/12 00:58:24;;;;;;;9.73;3.15;;;13.80;75.10;;;;;;5016721;28;20024;-77
2022/02/12 01:00:49;;;;;;;11.90;2.55;;;13.80;75.20;;;;;;5016173;28;20060;-77
2022/02/12 01:03:15;;;;;;;10.95;2.85;;;13.80;75.20;;;;;;5033858;28;20022;-76
2022/02/12 01:05:41;;;;;;;11.48;2.80;;;13.80;75.20;;;;;;5037679;28;20036;-77
2022/02/12 01:08:07;;;;;;;8.85;2.42;;;13.70;75.10;;;;;;5035270;28;20021;-77
2022/02/12 01:10:34;;;;;;;9.27;2.60;;;13.70;75.20;;;;;;5035823;28;20054;-77
2022/02/12 01:13:01;;;;;;;7.40;2.30;;;13.70;75.20;;;;;;5053618;28;20055;-77
2022/02/12 01:15:27;;;;;;;10.52;2.75;;;13.70;75.20;;;;;;5034458;28;20394;-77
2022/02/12 01:17:52;;;;;;;10.43;2.80;;;13.80;75.30;;;;;;5053515;28;20074;-77
2022/02/12 01:20:18;;;;;;;8.45;2.75;;;13.80;75.30;;;;;;5035647;28;20555;-77
2022/02/12 01:22:46;;;;;;;7.05;2.58;;;13.70;75.30;;;;;;5034979;28;20171;-77
2022/02/12 01:25:11;;;;;;;9.48;2.25;;;13.70;75.30;;;;;;5045812;28;20037;-77
2022/02/12 01:27:37;;;;;;;9.68;2.78;;;13.70;75.50;;;;;;5015876;28;20018;-77
2022/02/12 01:30:04;;;;;;;8.90;2.38;;;13.70;75.40;;;;;;5023777;28;20106;-77
2022/02/12 01:32:30;;;;;;;8.23;2.17;;;13.80;75.50;;;;;;5053377;28;20084;-77
2022/02/12 01:34:56;;;;;;;8.52;2.85;;;13.70;75.40;;;;;;5026281;28;20080;-77
2022/02/12 01:37:23;;;;;;;8.35;2.30;;;13.70;75.50;;;;;;5033549;28;20029;-77
2022/02/12 01:39:49;;;;;;;9.43;2.58;;;13.70;75.60;;;;;;5039148;28;20048;-77
2022/02/12 01:42:14;;;;;;;8.40;2.88;;;13.70;75.60;;;;;;5035439;28;20474;-76
2022/02/12 01:44:40;;;;;;;9.52;2.53;;;13.70;75.60;;;;;;5052757;28;20029;-78
2022/02/12 01:47:08;;;;;;;7.32;2.70;;;13.70;75.70;;;;;;5052879;28;20124;-77
2022/02/12 01:49:34;;;;;;;7.97;2.40;;;13.70;75.70;;;;;;5048427;28;20017;-76
2022/02/12 01:52:01;;;;;;;7.43;2.83;;;13.70;75.70;;;;;;5015431;28;20032;-77
2022/02/12 01:54:30;;;;;;;7.65;2.47;;;13.70;75.70;;;;;;5015339;28;20029;-77
2022/02/12 01:56:58;;;;;;;8.88;2.63;;;13.70;75.70;;;;;;5014284;28;20061;-76
2022/02/12 01:59:24;;;;;;;7.93;2.70;;;13.70;75.70;;;;;;5018584;28;20029;-77
2022/02/12 02:01:50;;;;;;;8.35;2.25;;;13.70;76.30;;;;;;5052806;28;20128;-77
2022/02/12 02:04:17;;;;;;;8.68;2.42;;;13.70;75.80;;;;;;5040473;28;20430;-77
2022/02/12 02:06:43;;;;;;;7.18;2.13;;;13.60;75.80;;;;;;5032875;28;20013;-77
2022/02/12 02:09:09;;;;;;;8.38;2.53;;;13.70;75.70;;;;;;5032468;28;20475;-77
2022/02/12 02:11:36;;;;;;;7.13;2.20;;;13.60;75.80;;;;;;5017779;28;20029;-77
2022/02/12 02:14:03;;;;;;;7.28;2.45;;;13.60;75.80;;;;;;5052485;28;20052;-77
2022/02/12 02:16:29;;;;;;;10.00;2.75;;;13.60;75.80;;;;;;5034815;28;20029;-77
2022/02/12 02:18:55;;;;;;;6.32;2.20;;;13.70;75.80;;;;;;5033138;28;20037;-76
2022/02/12 02:21:22;;;;;;;6.70;2.38;;;13.60;75.80;;;;;;5015031;28;20124;-76
2022/02/12 02:23:48;;;;;;;6.97;2.60;;;13.60;75.80;;;;;;5032462;28;20022;-76
2022/02/12 02:26:14;;;;;;;5.55;2.03;;;13.60;75.90;;;;;;5032379;28;20021;-77
2022/02/12 02:28:40;;;;;;;9.45;2.60;;;13.60;75.90;;;;;;5032252;28;20029;-77
2022/02/12 02:31:06;;;;;;;7.45;2.50;;;13.60;76.00;;;;;;5032257;28;20022;-77
2022/02/12 02:33:32;;;;;;;7.10;2.40;;;13.60;76.00;;;;;;5014757;28;20037;-77
2022/02/12 02:35:57;;;;;;;7.45;2.50;;;13.60;76.00;;;;;;5032390;28;20029;-77
2022/02/12 02:38:24;;;;;;;7.50;2.22;;;13.60;76.00;;;;;;5026026;28;20112;-77
2022/02/12 02:40:50;;;;;;;7.47;2.45;;;13.60;76.00;;;;;;5051504;28;20025;-76
2022/02/12 02:43:16;;;;;;;6.30;2.20;;;13.60;76.10;;;;;;5034151;28;20031;-77
2022/02/12 02:45:41;;;;;;;7.75;2.53;;;13.60;76.10;;;;;;5033472;28;20056;-77
2022/02/12 02:48:09;;;;;;;6.07;2.05;;;13.60;76.10;;;;;;5030509;28;20025;-77
2022/02/12 02:56:08;;;;;;;5.80;1.90;;;13.60;76.00;;;;;;5032518;28;20040;-77
2022/02/12 02:58:37;;;;;;;8.07;2.60;;;13.60;76.10;;;;;;5020478;28;20485;-77
2022/02/12 03:01:15;;;;;;;5.93;2.08;;;13.60;76.10;;;;;;5032745;28;20116;-77
2022/02/12 03:03:42;;;;;;;7.10;2.25;;;13.60;76.10;;;;;;5034007;28;20052;-77
2022/02/12 03:06:09;;;;;;;6.13;2.22;;;13.60;76.10;;;;;;5034180;28;20051;-77
2022/02/12 03:08:36;;;;;;;8.05;2.60;;;13.50;76.10;;;;;;5033847;28;20021;-75
2022/02/12 03:11:02;;;;;;;7.07;2.45;;;13.50;76.00;;;;;;5038572;28;20033;-77
2022/02/12 03:13:28;;;;;;;6.43;2.30;;;13.50;76.00;;;;;;5026060;28;20024;-76
2022/02/12 03:15:53;;;;;;;6.85;2.50;;;13.60;76.10;;;;;;5034202;28;20034;-77
2022/02/12 03:18:19;;;;;;;6.97;2.45;;;13.50;76.10;;;;;;5020952;28;20076;-77
2022/02/12 03:20:45;;;;;;;6.13;2.10;;;13.50;76.10;;;;;;5038023;28;20500;-77
2022/02/12 03:23:11;;;;;;;8.60;2.40;;;13.50;76.10;;;;;;5038512;28;20025;-77
2022/02/12 03:25:37;;;;;;;5.88;2.30;;;13.50;76.20;;;;;;5049529;28;20036;-77
2022/02/12 03:28:05;;;;;;;6.50;2.28;;;13.50;76.20;;;;;;5058365;28;20025;-77
2022/02/12 03:30:34;;;;;;;6.10;2.25;;;13.50;76.20;;;;;;5039490;28;20104;-77
2022/02/12 03:33:00;;;;;;;7.70;2.42;;;13.50;76.20;;;;;;5039538;28;20083;-77
2022/02/12 03:35:29;;;;;;;7.43;2.70;;;13.50;76.10;;;;;;5040536;28;20449;-77
2022/02/12 03:38:06;;;;;;;6.88;2.38;;;13.50;76.20;;;;;;5029915;28;20029;-76
2022/02/12 03:40:31;;;;;;;7.53;2.30;;;13.50;76.20;;;;;;5020603;28;20038;-77
2022/02/12 03:42:57;;;;;;;6.68;2.13;;;13.50;76.20;;;;;;5037606;28;20044;-76
2022/02/12 03:45:22;;;;;;;6.25;2.40;;;13.50;76.20;;;;;;5048298;28;20020;-77
2022/02/12 03:47:49;;;;;;;6.10;2.25;;;13.50;76.30;;;;;;5063820;28;20394;-77
2022/02/12 03:50:15;;;;;;;8.35;2.65;;;13.50;76.20;;;;;;5070037;28;20457;-77
2022/02/12 03:52:40;;;;;;;5.45;1.95;;;13.50;76.30;;;;;;5040385;28;20032;-77
2022/02/12 03:55:06;;;;;;;7.32;2.70;;;13.50;76.30;;;;;;5058189;28;20025;-77
2022/02/12 03:57:32;;;;;;;5.68;2.22;;;13.50;76.30;;;;;;5058175;28;20025;-77
2022/02/12 03:59:58;;;;;;;5.43;2.25;;;13.50;76.30;;;;;;5057390;28;20092;-77
2022/02/12 04:02:25;;;;;;;6.45;2.33;;;13.50;76.30;;;;;;5045290;28;20020;-77
2022/02/12 04:04:51;;;;;;;5.85;2.22;;;13.50;76.30;;;;;;5020474;28;20025;-77
2022/02/12 04:07:17;;;;;;;6.03;2.35;;;13.50;76.40;;;;;;5020318;28;20029;-77
2022/02/12 04:09:42;;;;;;;5.93;2.42;;;13.40;76.40;;;;;;5025905;28;20032;-77
2022/02/12 04:12:08;;;;;;;7.13;2.25;;;13.50;76.40;;;;;;5040164;28;20120;-77
2022/02/12 04:14:33;;;;;;;8.02;2.45;;;13.50;76.40;;;;;;5040134;28;20028;-77
2022/02/12 04:16:59;;;;;;;8.90;2.78;;;13.50;76.30;;;;;;5033043;28;20486;-77
2022/02/12 04:19:25;;;;;;;8.23;2.55;;;13.40;76.30;;;;;;5034461;28;20033;-77
2022/02/12 04:21:50;;;;;;;7.90;2.30;;;13.40;76.30;;;;;;5034970;28;20482;-77
2022/02/12 04:24:16;;;;;;;6.28;2.50;;;13.50;76.40;;;;;;5034764;28;20036;-76
2022/02/12 04:26:41;;;;;;;6.63;2.20;;;13.50;76.40;;;;;;5016861;28;20028;-77
2022/02/12 04:29:07;;;;;;;6.88;2.70;;;13.50;76.30;;;;;;5016630;28;20029;-77
2022/02/12 04:31:32;;;;;;;5.55;2.28;;;13.40;76.40;;;;;;5027441;28;20021;-77
2022/02/12 04:33:58;;;;;;;6.57;2.10;;;13.40;76.40;;;;;;5041633;28;20044;-77
2022/02/12 04:36:23;;;;;;;6.53;2.20;;;13.40;76.40;;;;;;5040670;28;20083;-77
2022/02/12 04:38:49;;;;;;;6.05;2.30;;;13.40;76.40;;;;;;5034221;28;20069;-77
2022/02/12 04:41:14;;;;;;;6.40;2.28;;;13.50;76.40;;;;;;5034422;28;20064;-77
2022/02/12 04:43:40;;;;;;;7.15;2.33;;;13.40;76.40;;;;;;5016623;28;20029;-76
2022/02/12 04:46:05;;;;;;;6.47;2.40;;;13.40;76.40;;;;;;5053336;28;20032;-77
2022/02/12 04:48:31;;;;;;;5.75;2.33;;;13.40;76.40;;;;;;5047503;28;20036;-77
2022/02/12 04:50:56;;;;;;;6.22;2.45;;;13.40;76.40;;;;;;5021230;28;20486;-76
2022/02/12 04:53:22;;;;;;;6.47;2.42;;;13.40;76.40;;;;;;5037503;28;20037;-76
2022/02/12 04:55:47;;;;;;;4.80;1.90;;;13.40;76.40;;;;;;5034547;28;20517;-77
2022/02/12 04:58:13;;;;;;;6.85;2.33;;;13.40;76.50;;;;;;5016319;28;20029;-77
2022/02/12 05:00:38;;;;;;;5.78;2.30;;;13.40;76.50;;;;;;5048591;28;20037;-77
2022/02/12 05:03:04;;;;;;;7.80;2.60;;;13.40;76.40;;;;;;5054108;28;20025;-77
2022/02/12 05:05:29;;;;;;;5.20;2.47;;;13.40;76.50;;;;;;5044546;28;20387;-77
2022/02/12 05:07:55;;;;;;;6.05;2.58;;;13.40;76.40;;;;;;5016427;28;20071;-77
2022/02/12 05:10:20;;;;;;;3.85;2.08;;;13.40;76.40;;;;;;5033733;28;20025;-77
2022/02/12 05:12:46;;;;;;;6.22;2.60;;;13.40;76.40;;;;;;5016378;28;20029;-76
2022/02/12 05:15:11;;;;;;;5.00;2.20;;;13.40;76.40;;;;;;5016104;28;20513;-77
2022/02/12 05:17:37;;;;;;;4.85;2.08;;;13.30;76.20;;;;;;5033890;28;20088;-76
2022/02/12 05:20:04;;;;;;;5.65;2.25;;;13.30;76.30;;;;;;5031865;28;20116;-77
2022/02/12 05:22:29;;;;;;;6.55;2.60;;;13.30;76.20;;;;;;5053773;28;20112;-77
2022/02/12 05:24:55;;;;;;;6.03;2.28;;;13.40;76.20;;;;;;5053655;28;20537;-76
2022/02/12 05:27:22;;;;;;;10.13;3.05;;;13.40;76.20;;;;;;5035900;28;20117;-76
2022/02/12 05:29:47;;;;;;;7.70;2.65;;;13.40;76.00;;;;;;5053136;28;20021;-78
2022/02/12 05:32:13;;;;;;;6.60;2.42;;;13.40;75.80;;;;;;5035963;28;20025;-77
2022/02/12 05:34:38;;;;;;;8.27;2.65;;;13.30;75.60;;;;;;5035499;28;20028;-77
2022/02/12 05:37:04;;;;;;;6.10;2.30;;;13.30;75.60;;;;;;5053482;28;20032;-77
2022/02/12 05:39:30;;;;;;;8.98;3.00;;;13.30;75.70;;;;;;5052886;28;20064;-77
2022/02/12 05:41:55;;;;;;;10.95;3.00;;;13.30;75.70;;;;;;5053368;28;20033;-77
2022/02/12 05:44:21;;;;;;;7.45;2.58;;;13.30;75.80;;;;;;5031643;28;20055;-76
2022/02/12 05:46:46;;;;;;;10.20;2.70;;;13.40;75.80;;;;;;5044236;28;20021;-77
2022/02/12 05:49:12;;;;;;;10.88;2.97;;;13.40;76.00;;;;;;5056996;28;20474;-77
2022/02/12 05:51:38;;;;;;;9.43;3.00;;;13.40;76.00;;;;;;5035270;28;20028;-77
2022/02/12 05:54:05;;;;;;;7.93;2.63;;;13.40;76.10;;;;;;5030062;28;20490;-77
2022/02/12 05:56:31;;;;;;;8.77;2.78;;;13.50;76.50;;;;;;5064250;28;20025;-77
2022/02/12 05:58:58;;;;;;;10.88;2.80;;;13.50;77.20;;;;;;5034296;28;20036;-76
2022/02/12 06:01:24;;;;;;;8.88;2.63;;;13.50;77.50;;;;;;5056089;28;20371;-77
2022/02/12 06:03:49;;;;;;;8.68;2.50;;;13.60;77.70;;;;;;5034956;28;20074;-76
2022/02/12 06:06:17;;;;;;;7.05;2.10;;;13.60;77.90;;;;;;5035326;28;20421;-77
2022/02/12 06:08:42;;;;;;;11.88;2.72;;;13.60;78.50;;;;;;5034837;28;20029;-76
2022/02/12 06:11:08;;;;;;;6.70;2.33;;;13.70;78.40;;;;;;5034923;28;20075;-76
2022/02/12 06:13:34;;;;;;;9.10;2.63;;;13.60;78.70;;;;;;5028871;28;20063;-76
2022/02/12 06:15:59;;;;;;;8.95;2.35;;;13.80;79.40;;;;;;5046364;28;20486;-74
2022/02/12 06:18:25;;;;;;;10.05;2.63;;;13.90;79.40;;;;;;5018140;28;20112;-75
2022/02/12 06:20:50;;;;;;;10.95;2.70;;;14.00;79.70;;;;;;5027019;28;20643;-75
2022/02/12 06:23:20;;;;;;;8.55;2.28;;;14.10;80.20;;;;;;5033462;28;20029;-76
2022/02/12 06:25:46;;;;;;;8.30;2.25;;;14.20;80.60;;;;;;5067028;28;20025;-75
2022/02/12 06:28:12;;;;;;;15.48;3.08;;;14.20;80.70;;;;;;5048502;28;20033;-74
2022/02/12 06:30:38;;;;;;;12.52;3.20;;;14.30;80.70;;;;;;5048867;28;20447;-74
2022/02/12 06:33:03;;;;;;;10.95;3.50;;;14.30;80.60;;;;;;5038995;28;20032;-74
2022/02/12 06:35:29;;;;;;;26.70;5.45;;;14.30;80.40;;;;;;5029328;28;20025;-74
2022/02/12 06:37:58;;;;;;;18.80;5.43;;;14.30;77.10;;;;;;5046859;28;20028;-74
2022/02/12 06:40:24;;;;;;;21.45;6.80;;;14.20;77.90;;;;;;5029415;28;20021;-75
2022/02/12 06:42:50;;;;;;;27.75;7.18;;;14.20;76.70;;;;;;5029562;28;20025;-76
2022/02/12 06:45:16;;;;;;;26.92;6.93;;;14.20;75.70;;;;;;5030713;28;20021;-75
2022/02/12 06:47:43;;;;;;;25.15;7.97;;;14.30;75.60;;;;;;5032556;28;20514;-75
2022/02/12 06:50:09;;;;;;;24.80;7.50;;;14.30;75.50;;;;;;5009588;28;20406;-73
2022/02/12 06:52:34;;;;;;;19.88;6.63;;;14.40;76.00;;;;;;5041548;28;20017;-77
2022/02/12 06:55:00;;;;;;;19.52;6.65;;;14.40;75.90;;;;;;5015549;28;20032;-75
2022/02/12 06:57:25;;;;;;;20.45;6.55;;;14.50;75.90;;;;;;5034471;28;20029;-75
2022/02/12 06:59:51;;;;;;;27.83;7.03;;;14.50;75.20;;;;;;5033195;28;20631;-74
2022/02/12 07:02:18;;;;;;;25.20;6.85;;;14.50;75.90;;;;;;5046535;28;20017;-75
2022/02/12 07:04:43;;;;;;;17.90;6.07;;;14.50;75.90;;;;;;5032222;28;20022;-75
2022/02/12 07:07:09;;;;;;;18.70;5.80;;;14.60;75.70;;;;;;5027944;28;20608;-74
2022/02/12 07:09:34;;;;;;;21.27;6.22;;;14.70;74.30;;;;;;5049204;28;20052;-74
2022/02/12 07:12:00;;;;;;;37.05;6.88;;;14.70;73.80;;;;;;5023302;28;20060;-75
2022/02/12 07:14:26;;;;;;;17.25;5.43;;;14.70;73.10;;;;;;5027463;28;20039;-75
2022/02/12 07:16:51;;;;;;;16.40;5.20;;;14.70;72.80;;;;;;5030142;28;20037;-76
2022/02/12 07:19:17;;;;;;;20.40;5.40;;;14.70;72.30;;;;;;5020779;28;20562;-72
2022/02/12 07:21:42;;;;;;;18.13;5.57;;;14.80;71.90;;;;;;5051857;28;20028;-73
2022/02/12 07:24:08;;;;;;;14.73;4.97;;;14.80;71.30;;;;;;5053945;28;20029;-73
2022/02/12 07:26:34;;;;;;;13.45;4.38;;;14.80;70.70;;;;;;5037555;28;20111;-74
2022/02/12 07:28:59;;;;;;;18.83;4.82;;;14.90;69.80;;;;;;5038144;28;20042;-75
2022/02/12 07:31:25;;;;;;;14.18;5.65;;;15.00;69.20;;;;;;5019530;28;20032;-75
2022/02/12 07:33:50;;;;;;;31.48;6.05;;;15.00;68.80;;;;;;5044173;28;20026;-76
2022/02/12 07:36:16;;;;;;;56.55;8.57;;;15.10;68.20;;;;;;5013267;28;20042;-76
2022/02/12 07:38:42;;;;;;;44.95;6.15;;;15.10;68.00;;;;;;5014122;28;20025;-75
2022/02/12 07:41:07;;;;;;;32.72;6.38;;;15.00;68.80;;;;;;5049317;28;20128;-76
2022/02/12 07:43:34;;;;;;;22.67;5.13;;;14.80;68.20;;;;;;5033655;28;20569;-76
2022/02/12 07:46:00;;;;;;;24.10;4.57;;;14.60;66.70;;;;;;5031892;28;20052;-76
2022/02/12 07:48:26;;;;;;;16.35;4.40;;;14.50;64.90;;;;;;5058974;28;20107;-76
2022/02/12 07:50:54;;;;;;;12.02;4.40;;;14.40;65.50;;;;;;5032860;28;20467;-75
2022/02/12 07:53:20;;;;;;;14.82;4.38;;;14.30;64.90;;;;;;5044500;28;20017;-76
2022/02/12 07:55:46;;;;;;;13.45;4.40;;;14.30;65.00;;;;;;5055221;28;20447;-76
2022/02/12 07:58:12;;;;;;;13.80;4.32;;;14.30;64.40;;;;;;5020528;28;20064;-77
2022/02/12 08:00:37;;;;;;;12.27;4.90;;;14.20;64.20;;;;;;5040341;28;20026;-76
2022/02/12 08:03:03;;;;;;;10.30;4.38;;;14.20;62.80;;;;;;5075339;28;20028;-76
2022/02/12 08:05:29;;;;;;;12.38;4.68;;;14.20;63.10;;;;;;5075613;28;20017;-76
2022/02/12 08:07:55;;;;;;;11.40;4.60;;;14.10;63.30;;;;;;5038377;28;20025;-76
2022/02/12 08:13:04;;;;;;;11.18;4.70;;;14.10;63.60;;;;;;5055141;28;20061;-75
2022/02/12 08:15:30;;;;;;;8.80;3.83;;;14.10;63.20;;;;;;5032637;28;20025;-76
2022/02/12 08:17:57;;;;;;;11.23;4.53;;;14.00;63.00;;;;;;5057120;28;20104;-76
2022/02/12 08:20:22;;;;;;;10.07;4.10;;;14.00;62.50;;;;;;5052610;28;20025;-75
2022/02/12 08:22:51;;;;;;;9.45;3.70;;;14.00;62.60;;;;;;5055804;28;20528;-76
2022/02/12 08:25:16;;;;;;;10.68;3.72;;;14.00;62.20;;;;;;5031826;28;20044;-80
2022/02/12 08:27:42;;;;;;;9.02;4.15;;;14.00;62.60;;;;;;5046389;28;20482;-76
2022/02/12 08:30:08;;;;;;;9.90;3.53;;;14.00;62.10;;;;;;5030510;28;20031;-76
2022/02/12 08:32:34;;;;;;;9.18;4.00;;;14.00;62.00;;;;;;5036910;28;20087;-76
2022/02/12 08:35:00;;;;;;;9.18;3.67;;;14.00;62.10;;;;;;5055039;28;20104;-75
2022/02/12 08:37:27;;;;;;;8.20;3.90;;;14.00;61.90;;;;;;5054788;28;20524;-76
2022/02/12 08:39:52;;;;;;;16.95;3.72;;;14.00;61.90;;;;;;5036299;28;20052;-75
2022/02/12 08:42:20;;;;;;;17.40;4.28;;;14.00;61.80;;;;;;5036651;28;20021;-75
2022/02/12 08:44:47;;;;;;;18.95;4.07;;;14.10;61.50;;;;;;5036615;28;20029;-74
2022/02/12 08:47:12;;;;;;;11.48;3.45;;;14.10;61.80;;;;;;5054415;28;20087;-74
2022/02/12 08:49:38;;;;;;;17.92;4.22;;;14.20;62.10;;;;;;5036345;28;20028;-74
2022/02/12 08:52:04;;;;;;;15.50;4.25;;;14.20;62.20;;;;;;5054397;28;20025;-74
2022/02/12 08:54:30;;;;;;;15.23;3.45;;;14.20;62.10;;;;;;5036027;28;20452;-74
2022/02/12 08:56:56;;;;;;;15.63;3.90;;;14.20;61.90;;;;;;5054315;28;20021;-75
2022/02/12 08:59:22;;;;;;;13.50;4.00;;;14.20;61.80;;;;;;5036104;28;20029;-75
2022/02/12 09:01:47;;;;;;;13.68;3.92;;;14.20;61.50;;;;;;5036408;28;20047;-74
2022/02/12 09:04:13;;;;;;;12.93;3.72;;;14.30;62.00;;;;;;5053861;28;20056;-75
2022/02/12 09:06:40;;;;;;;11.18;3.60;;;14.30;61.70;;;;;;5036071;28;20106;-75
2022/02/12 09:09:08;;;;;;;14.20;3.83;;;14.20;61.70;;;;;;5053475;28;20033;-75
2022/02/12 09:11:35;;;;;;;15.65;3.90;;;14.30;62.30;;;;;;5054104;28;20363;-75
2022/02/12 09:14:01;;;;;;;11.50;3.22;;;14.30;62.00;;;;;;5053916;28;20032;-75
2022/02/12 09:16:28;;;;;;;12.98;3.40;;;14.30;62.30;;;;;;5041687;28;20466;-73
2022/02/12 09:18:54;;;;;;;12.63;3.40;;;14.20;62.80;;;;;;5054572;28;20028;-72
2022/02/12 09:21:23;;;;;;;15.07;3.85;;;14.20;62.40;;;;;;5033987;28;20025;-73
2022/02/12 09:23:49;;;;;;;8.95;3.45;;;14.20;62.60;;;;;;5033634;28;20052;-73
2022/02/12 09:26:15;;;;;;;10.07;3.28;;;14.20;62.70;;;;;;5053204;28;20104;-72
2022/02/12 09:28:40;;;;;;;11.50;4.22;;;14.30;62.80;;;;;;5052895;28;20055;-73
2022/02/12 09:31:06;;;;;;;12.18;3.33;;;14.20;62.70;;;;;;5035206;28;20032;-72
2022/02/12 09:33:32;;;;;;;9.05;3.17;;;14.30;62.70;;;;;;5035144;28;20029;-72
2022/02/12 09:35:57;;;;;;;11.27;3.30;;;14.30;63.00;;;;;;5035093;28;20100;-72
2022/02/12 09:38:24;;;;;;;7.38;2.88;;;14.30;62.80;;;;;;5052956;28;20096;-73
2022/02/12 09:40:52;;;;;;;8.68;3.20;;;14.30;62.60;;;;;;5034831;28;20047;-73
2022/02/12 09:43:21;;;;;;;9.50;3.00;;;14.30;62.80;;;;;;5034958;28;20075;-72
2022/02/12 09:46:03;;;;;;;8.63;3.00;;;14.30;62.70;;;;;;5034957;28;20051;-75
2022/02/12 09:48:30;;;;;;;9.38;3.10;;;14.20;62.70;;;;;;5052893;28;20025;-75
2022/02/12 09:50:59;;;;;;;8.05;2.70;;;14.20;62.70;;;;;;5052764;28;20099;-74
2022/02/12 09:53:27;;;;;;;7.70;3.05;;;14.20;62.80;;;;;;5053176;28;20021;-76
2022/02/12 09:55:53;;;;;;;8.85;3.00;;;14.30;62.60;;;;;;5053061;28;20406;-76
2022/02/12 09:58:18;;;;;;;9.02;3.00;;;14.30;62.80;;;;;;5035091;28;20021;-76
2022/02/12 10:00:44;;;;;;;7.20;2.88;;;14.30;62.70;;;;;;5035008;28;20025;-77
2022/02/12 10:03:10;;;;;;;8.90;2.88;;;14.30;62.60;;;;;;5035013;28;20414;-77
2022/02/12 10:05:38;;;;;;;7.57;2.53;;;14.40;62.50;;;;;;5035012;28;20049;-76
2022/02/12 10:08:09;;;;;;;7.50;2.88;;;14.30;62.40;;;;;;5052639;28;20017;-76
2022/02/12 10:10:36;;;;;;;6.82;2.70;;;14.40;62.50;;;;;;5034769;28;20047;-77
2022/02/12 10:13:12;;;;;;;7.07;2.85;;;14.40;62.40;;;;;;5034946;28;20037;-77
2022/02/12 10:15:38;;;;;;;7.13;3.15;;;14.40;62.30;;;;;;5034768;28;20032;-76
2022/02/12 10:18:03;;;;;;;7.50;3.22;;;14.40;62.60;;;;;;5033978;28;20029;-77
2022/02/12 10:20:34;;;;;;;9.20;3.08;;;14.40;62.50;;;;;;5034416;28;20025;-77
2022/02/12 10:23:07;;;;;;;7.65;2.72;;;14.40;62.60;;;;;;5034566;28;20021;-76
2022/02/12 10:25:34;;;;;;;9.18;3.00;;;14.40;62.40;;;;;;5035267;28;20033;-77
2022/02/12 10:28:00;;;;;;;10.90;2.75;;;14.40;62.80;;;;;;5034967;28;20048;-76
2022/02/12 10:30:27;;;;;;;14.65;3.30;;;14.40;62.20;;;;;;5053743;28;20048;-78
2022/02/12 10:33:02;;;;;;;31.17;3.83;;;14.40;63.10;;;;;;5036486;28;20528;-77
2022/02/12 10:35:28;;;;;;;28.02;4.25;;;14.20;60.30;;;;;;5036812;28;20029;-78
2022/02/12 10:37:59;;;;;;;19.30;3.85;;;14.20;60.00;;;;;;5037289;28;20052;-78
2022/02/12 10:40:26;;;;;;;20.00;3.33;;;14.20;60.20;;;;;;5055536;28;20464;-78
2022/02/12 10:42:51;;;;;;;13.55;3.35;;;14.20;60.80;;;;;;5036589;28;20065;-77
2022/02/12 10:45:18;;;;;;;13.93;3.47;;;14.30;60.80;;;;;;5035893;28;20065;-77
2022/02/12 10:47:48;;;;;;;13.65;4.03;;;14.40;61.00;;;;;;5020638;28;20045;-77
2022/02/12 10:50:16;;;;;;;16.65;3.75;;;14.40;60.60;;;;;;5046737;28;20027;-78
2022/02/12 10:52:46;;;;;;;14.93;3.63;;;14.50;60.70;;;;;;5039656;28;20043;-77
2022/02/12 10:55:31;;;;;;;9.18;3.40;;;14.50;61.00;;;;;;5037438;28;20047;-77
2022/02/12 10:58:08;;;;;;;9.70;3.17;;;14.50;61.10;;;;;;5039994;28;20520;-77
2022/02/12 11:00:36;;;;;;;17.67;2.95;;;14.60;61.50;;;;;;5058088;28;20037;-78
2022/02/12 11:03:06;;;;;;;27.67;3.90;;;14.70;62.30;;;;;;5040237;28;20032;-79
2022/02/12 11:05:36;;;;;;;25.92;4.25;;;14.80;61.90;;;;;;5040596;28;20022;-79
2022/02/12 11:08:06;;;;;;;24.25;4.18;;;14.80;62.30;;;;;;5057465;28;20024;-76
2022/02/12 11:10:39;;;;;;;27.13;4.45;;;14.90;63.20;;;;;;5053398;28;20032;-78
2022/02/12 11:13:06;;;;;;;20.00;3.92;;;15.10;64.90;;;;;;5052764;28;20393;-77
2022/02/12 11:15:32;;;;;;;22.08;4.03;;;15.10;65.20;;;;;;5035487;28;20029;-77
2022/02/12 11:18:05;;;;;;;22.55;4.43;;;15.20;65.40;;;;;;5034677;28;20025;-77
2022/02/12 11:20:34;;;;;;;15.90;3.47;;;15.20;66.50;;;;;;5034683;28;20036;-76
2022/02/12 11:23:18;;;;;;;23.58;4.13;;;15.40;67.40;;;;;;5035367;28;20458;-77
2022/02/12 11:25:44;;;;;;;22.00;3.95;;;15.40;68.20;;;;;;5052722;28;20032;-77
2022/02/12 11:28:11;;;;;;;17.48;3.50;;;15.50;69.30;;;;;;5053757;28;20406;-77
2022/02/12 11:30:44;;;;;;;19.75;3.50;;;15.50;70.00;;;;;;5056495;28;20025;-77
2022/02/12 11:33:21;;;;;;;14.77;3.78;;;15.60;70.50;;;;;;5039170;28;20025;-77
2022/02/12 11:36:26;;;;;;;17.42;3.60;;;15.60;71.40;;;;;;5038687;28;20028;-77
2022/02/12 11:39:13;;;;;;;17.75;3.90;;;15.70;71.20;;;;;;5055059;28;20040;-75
2022/02/12 11:41:53;;;;;;;20.58;4.57;;;15.80;71.80;;;;;;5037454;28;20509;-75
2022/02/12 11:44:42;;;;;;;17.50;3.60;;;15.90;72.30;;;;;;5037502;28;20421;-76
2022/02/12 11:47:09;;;;;;;20.42;4.15;;;15.90;71.90;;;;;;5055847;28;20017;-74
2022/02/12 11:49:44;;;;;;;20.08;4.63;;;16.00;72.50;;;;;;5036942;28;20021;-73
2022/02/12 11:52:29;;;;;;;24.33;4.65;;;16.00;72.50;;;;;;5051718;28;20027;-78
2022/02/12 11:54:57;;;;;;;19.95;4.95;;;16.00;72.80;;;;;;5019273;28;20048;-75
2022/02/12 11:57:26;;;;;;;18.50;4.90;;;16.00;73.00;;;;;;5026243;28;20033;-73
2022/02/12 12:00:00;;;;;;;18.42;4.70;;;16.10;73.10;;;;;;5045240;28;20448;-74
2022/02/12 12:02:48;;;;;;;24.50;5.45;;;16.20;73.30;;;;;;5047811;28;20048;-77
2022/02/12 12:05:22;;;;;;;20.02;5.03;;;16.20;73.20;;;;;;5024465;28;20074;-74
2022/02/12 12:08:00;;;;;;;24.15;5.30;;;16.20;73.10;;;;;;5021406;28;20036;-75
2022/02/12 12:10:28;;;;;;;27.15;5.70;;;16.20;71.80;;;;;;5021449;28;20032;-74
2022/02/12 12:12:59;;;;;;;25.08;5.63;;;16.30;70.50;;;;;;5042160;28;20155;-74
2022/02/12 12:15:26;;;;;;;19.40;4.65;;;16.30;69.60;;;;;;5044021;28;20435;-74
2022/02/12 12:18:10;;;;;;;20.63;4.60;;;16.40;69.00;;;;;;5045338;28;20025;-75
2022/02/12 12:20:40;;;;;;;19.20;4.88;;;16.40;68.40;;;;;;5027472;28;20025;-74
2022/02/12 12:23:09;;;;;;;17.52;4.78;;;16.40;68.00;;;;;;5043024;28;20406;-74
2022/02/12 12:26:06;;;;;;;18.75;4.65;;;16.50;67.80;;;;;;5041934;28;20108;-77
2022/02/12 12:28:38;;;;;;;16.17;3.72;;;16.50;67.20;;;;;;5021134;28;20021;-75
2022/02/12 12:31:06;;;;;;;14.02;3.65;;;16.40;66.90;;;;;;5029072;28;20025;-75
2022/02/12 12:33:36;;;;;;;17.17;4.15;;;16.40;66.70;;;;;;5026923;28;20033;-76
2022/02/12 12:36:10;;;;;;;14.18;3.70;;;16.40;66.30;;;;;;5019350;28;20029;-75
2022/02/12 12:38:39;;;;;;;12.05;3.30;;;16.40;66.00;;;;;;5034420;28;20498;-74
2022/02/12 12:41:25;;;;;;;12.27;3.80;;;16.40;65.80;;;;;;5033384;28;20036;-74
2022/02/12 12:44:09;;;;;;;12.50;3.30;;;16.30;65.30;;;;;;5016507;28;20017;-75
2022/02/12 12:46:37;;;;;;;13.02;3.22;;;16.30;65.30;;;;;;5016594;28;20609;-75
2022/02/12 12:49:03;;;;;;;10.98;3.22;;;16.20;64.70;;;;;;5016308;28;20490;-76